createdAt,value
2018-09-01T00:00:13.094Z,12.37
2018-09-01T00:02:47.536Z,12.57
2018-09-01T00:05:20.975Z,12.10
2018-09-01T00:07:51.260Z,12.07
2018-09-01T00:10:21.295Z,12.60
2018-09-01T00:12:51.374Z,12.70
2018-09-01T00:15:22.273Z,11.37
2018-09-01T00:17:53.112Z,12.73
2018-09-01T00:20:23.479Z,12.40
2018-09-01T00:22:54.839Z,12.50
2018-09-01T00:25:25.090Z,11.50
2018-09-01T00:27:55.412Z,11.50
2018-09-01T00:30:25.865Z,10.93
2018-09-01T00:32:55.832Z,12.67
2018-09-01T00:35:26.028Z,11.87
2018-09-01T00:38:01.580Z,12.47
2018-09-01T00:40:31.944Z,12.33
2018-09-01T00:43:02.148Z,12.87
2018-09-01T00:45:32.295Z,12.57
2018-09-01T00:48:02.387Z,12.70
2018-09-01T00:50:33.036Z,14.90
2018-09-01T00:53:03.652Z,15.13
2018-09-01T00:55:34.501Z,13.03
2018-09-01T00:58:04.790Z,12.40
2018-09-01T01:00:34.937Z,12.70
2018-09-01T01:03:05.166Z,12.37
2018-09-01T01:05:35.274Z,12.90
2018-09-01T01:08:06.172Z,12.53
2018-09-01T01:10:36.307Z,12.60
2018-09-01T01:13:06.401Z,12.57
2018-09-01T01:15:36.287Z,13.50
2018-09-01T01:18:06.567Z,12.73
2018-09-01T01:20:37.922Z,13.80
2018-09-01T01:23:07.961Z,14.03
2018-09-01T01:25:37.917Z,12.37
2018-09-01T01:28:08.121Z,13.20
2018-09-01T01:30:38.454Z,12.40
2018-09-01T01:33:08.697Z,13.10
2018-09-01T01:35:39.554Z,12.23
2018-09-01T01:38:10.352Z,13.20
2018-09-01T01:40:40.425Z,12.40
2018-09-01T01:43:10.656Z,13.43
2018-09-01T01:45:41.059Z,13.17
2018-09-01T01:48:11.166Z,12.20
2018-09-01T01:50:41.435Z,12.40
2018-09-01T01:53:11.643Z,13.37
2018-09-01T01:55:41.853Z,12.80
2018-09-01T01:58:11.893Z,12.30
2018-09-01T02:00:42.151Z,13.17
2018-09-01T02:03:12.449Z,12.33
2018-09-01T02:05:42.580Z,12.73
2018-09-01T02:08:12.717Z,12.43
2018-09-01T02:10:43.344Z,13.17
2018-09-01T02:13:13.839Z,12.97
2018-09-01T02:15:43.978Z,13.60
2018-09-01T02:18:14.171Z,13.10
2018-09-01T02:20:44.292Z,12.37
2018-09-01T02:23:14.734Z,12.50
2018-09-01T02:25:45.289Z,11.80
2018-09-01T02:28:15.363Z,12.47
2018-09-01T02:30:45.737Z,12.80
2018-09-01T02:33:16.074Z,12.57
2018-09-01T02:35:46.088Z,12.27
2018-09-01T02:38:17.108Z,13.00
2018-09-01T02:40:47.214Z,12.37
2018-09-01T02:43:17.592Z,12.57
2018-09-01T02:45:47.861Z,11.70
2018-09-01T02:48:18.019Z,13.03
2018-09-01T02:50:48.243Z,12.80
2018-09-01T02:53:19.289Z,12.23
2018-09-01T02:55:49.408Z,12.03
2018-09-01T02:58:20.601Z,13.00
2018-09-01T03:00:55.516Z,12.33
2018-09-01T03:03:26.452Z,13.13
2018-09-01T03:05:56.646Z,13.83
2018-09-01T03:08:26.971Z,14.10
2018-09-01T03:10:57.491Z,11.97
2018-09-01T03:13:29.296Z,13.00
2018-09-01T03:16:00.491Z,14.00
2018-09-01T03:18:30.670Z,12.07
2018-09-01T03:21:00.716Z,13.10
2018-09-01T03:23:30.926Z,12.67
2018-09-01T03:26:01.078Z,12.40
2018-09-01T03:28:31.354Z,12.37
2018-09-01T03:31:01.871Z,12.90
2018-09-01T03:33:31.984Z,12.33
2018-09-01T03:36:02.818Z,12.00
2018-09-01T03:38:34.018Z,11.60
2018-09-01T03:41:04.204Z,11.60
2018-09-01T03:43:35.474Z,12.83
2018-09-01T03:46:05.824Z,12.27
2018-09-01T03:48:36.344Z,13.07
2018-09-01T03:51:07.191Z,13.17
2018-09-01T03:53:37.588Z,12.87
2018-09-01T03:56:07.946Z,11.90
2018-09-01T03:58:38.322Z,12.33
2018-09-01T04:01:08.617Z,12.60
2018-09-01T04:03:39.862Z,12.70
2018-09-01T04:06:10.068Z,12.47
2018-09-01T04:08:40.437Z,12.43
2018-09-01T04:11:10.708Z,13.80
2018-09-01T04:13:41.654Z,13.10
2018-09-01T04:16:11.709Z,13.00
2018-09-01T04:18:41.789Z,13.87
2018-09-01T04:21:12.137Z,11.77
2018-09-01T04:23:42.422Z,13.40
2018-09-01T04:26:12.844Z,12.23
2018-09-01T04:28:43.067Z,11.67
2018-09-01T04:31:13.696Z,12.10
2018-09-01T04:33:44.987Z,12.73
2018-09-01T04:36:15.470Z,13.10
2018-09-01T04:38:57.595Z,13.03
2018-09-01T04:41:28.152Z,12.57
2018-09-01T04:43:59.490Z,12.13
2018-09-01T04:46:29.631Z,12.87
2018-09-01T04:48:59.896Z,12.47
2018-09-01T04:51:30.239Z,12.63
2018-09-01T04:54:00.663Z,13.27
2018-09-01T04:56:30.847Z,13.90
2018-09-01T04:59:01.766Z,13.07
2018-09-01T05:01:31.889Z,13.50
2018-09-01T05:04:03.155Z,13.53
2018-09-01T05:06:34.812Z,13.50
2018-09-01T05:43:46.494Z,12.57
2018-09-01T05:46:16.179Z,13.00
2018-09-01T05:48:46.089Z,12.77
2018-09-01T05:51:15.778Z,11.93
2018-09-01T05:53:45.528Z,11.77
2018-09-01T05:56:15.224Z,13.57
2018-09-01T05:58:44.917Z,12.40
2018-09-01T06:01:14.764Z,12.57
2018-09-01T06:03:47.408Z,12.70
2018-09-01T06:06:17.213Z,11.43
2018-09-01T06:08:47.123Z,12.40
2018-09-01T06:11:16.881Z,12.93
2018-09-01T06:13:46.693Z,12.47
2018-09-01T06:16:18.249Z,12.60
2018-09-01T06:18:48.954Z,12.10
2018-09-01T06:21:19.887Z,12.07
2018-09-01T06:23:50.221Z,11.80
2018-09-01T06:26:21.220Z,13.10
2018-09-01T06:28:54.916Z,13.43
2018-09-01T06:31:25.407Z,11.30
2018-09-01T06:33:55.582Z,12.27
2018-09-01T06:36:25.336Z,12.47
2018-09-01T06:38:56.952Z,13.17
2018-09-01T06:41:26.725Z,12.90
2018-09-01T06:43:56.542Z,11.53
2018-09-01T06:46:26.862Z,12.80
2018-09-01T06:48:57.133Z,12.80
2018-09-01T06:51:27.884Z,13.23
2018-09-01T06:53:57.715Z,11.83
2018-09-01T06:56:30.816Z,11.60
2018-09-01T06:59:01.802Z,12.10
2018-09-01T07:01:31.825Z,12.43
2018-09-01T07:04:02.240Z,12.27
2018-09-01T07:06:32.214Z,12.93
2018-09-01T07:09:01.989Z,14.73
2018-09-01T07:11:31.779Z,14.63
2018-09-01T07:14:02.152Z,12.70
2018-09-01T07:16:31.921Z,13.60
2018-09-01T07:19:02.355Z,13.40
2018-09-01T07:21:32.826Z,12.50
2018-09-01T07:24:02.549Z,13.03
2018-09-01T07:26:32.283Z,13.50
2018-09-01T07:29:02.651Z,13.13
2018-09-01T07:31:33.220Z,15.07
2018-09-01T07:34:03.144Z,13.07
2018-09-01T07:36:33.811Z,13.93
2018-09-01T07:39:06.085Z,13.60
2018-09-01T07:41:35.974Z,16.00
2018-09-01T07:44:07.331Z,15.17
2018-09-01T07:46:38.297Z,14.70
2018-09-01T07:49:09.396Z,14.50
2018-09-01T07:51:40.215Z,13.97
2018-09-01T07:54:10.858Z,13.63
2018-09-01T07:56:41.341Z,13.50
2018-09-01T07:59:12.294Z,15.00
2018-09-01T08:01:46.428Z,15.37
2018-09-01T08:04:16.671Z,15.67
2018-09-01T08:06:46.932Z,13.00
2018-09-01T08:09:17.281Z,14.33
2018-09-01T08:11:56.227Z,14.30
2018-09-01T08:14:26.624Z,14.60
2018-09-01T08:16:57.276Z,12.70
2018-09-01T08:19:27.592Z,15.17
2018-09-01T08:21:57.883Z,14.63
2018-09-01T08:24:29.692Z,14.03
2018-09-01T08:27:00.668Z,14.10
2018-09-01T08:29:31.033Z,14.20
2018-09-01T08:32:01.930Z,14.90
2018-09-01T08:34:32.201Z,14.60
2018-09-01T08:37:02.343Z,14.23
2018-09-01T08:39:33.296Z,14.43
2018-09-01T08:42:03.488Z,14.70
2018-09-01T08:44:33.752Z,13.30
2018-09-01T08:47:06.518Z,13.30
2018-09-01T08:49:38.362Z,14.20
2018-09-01T08:52:08.477Z,11.70
2018-09-01T08:54:39.024Z,13.30
2018-09-01T08:57:09.541Z,13.40
2018-09-01T08:59:40.115Z,13.57
2018-09-01T09:02:10.529Z,13.53
2018-09-01T09:04:40.880Z,14.17
2018-09-01T09:07:15.048Z,13.90
2018-09-01T09:09:45.439Z,13.33
2018-09-01T09:12:17.850Z,12.70
2018-09-01T09:14:48.920Z,13.83
2018-09-01T09:17:19.500Z,12.17
2018-09-01T09:19:51.299Z,13.30
2018-09-01T09:22:22.188Z,13.77
2018-09-01T09:24:52.361Z,14.73
2018-09-01T09:27:23.434Z,13.50
2018-09-01T09:29:54.073Z,12.40
2018-09-01T09:32:24.147Z,13.70
2018-09-01T09:34:54.483Z,14.43
2018-09-01T09:37:24.762Z,13.40
2018-09-01T09:39:55.109Z,14.70
2018-09-01T09:42:25.393Z,12.30
2018-09-01T09:44:56.431Z,13.00
2018-09-01T09:47:28.427Z,12.73
2018-09-01T09:49:59.525Z,12.63
2018-09-01T09:52:29.773Z,13.47
2018-09-01T09:55:00.062Z,13.27
2018-09-01T09:57:30.622Z,13.90
2018-09-01T10:00:00.848Z,13.87
2018-09-01T10:02:31.986Z,12.30
2018-09-01T10:05:02.057Z,13.70
2018-09-01T10:07:33.112Z,12.90
2018-09-01T10:10:04.078Z,12.87
2018-09-01T10:12:34.947Z,12.97
2018-09-01T10:15:08.367Z,13.23
2018-09-01T10:17:39.557Z,13.43
2018-09-01T10:20:09.821Z,13.13
2018-09-01T10:22:39.998Z,12.90
2018-09-01T10:25:10.306Z,13.13
2018-09-01T10:27:40.456Z,14.10
2018-09-01T10:30:11.681Z,12.70
2018-09-01T10:32:42.560Z,12.70
2018-09-01T10:35:12.908Z,14.30
2018-09-01T10:37:43.789Z,13.23
2018-09-01T10:40:14.101Z,13.37
2018-09-01T10:42:44.541Z,13.13
2018-09-01T10:45:16.706Z,12.90
2018-09-01T10:47:46.938Z,13.00
2018-09-01T10:50:17.038Z,12.00
2018-09-01T10:52:47.448Z,11.77
2018-09-01T10:55:17.769Z,13.10
2018-09-01T10:57:48.064Z,12.00
2018-09-01T11:00:21.305Z,13.40
2018-09-01T11:02:53.044Z,12.27
2018-09-01T11:05:24.421Z,13.80
2018-09-01T11:07:54.886Z,13.70
2018-09-01T11:10:26.799Z,14.80
2018-09-01T11:12:56.612Z,13.30
2018-09-01T11:15:26.463Z,13.27
2018-09-01T11:17:56.255Z,14.77
2018-09-01T11:20:26.172Z,14.90
2018-09-01T11:22:56.368Z,13.50
2018-09-01T11:25:27.124Z,15.43
2018-09-01T11:27:58.619Z,14.80
2018-09-01T11:30:28.997Z,14.37
2018-09-01T11:32:59.392Z,13.30
2018-09-01T11:35:29.872Z,14.60
2018-09-01T11:38:01.236Z,14.53
2018-09-01T11:40:31.571Z,13.73
2018-09-01T11:43:02.946Z,14.13
2018-09-01T11:45:33.451Z,13.63
2018-09-01T11:48:04.120Z,13.23
2018-09-01T11:50:35.562Z,13.83
2018-09-01T11:53:05.800Z,13.07
2018-09-01T11:55:36.506Z,13.60
2018-09-01T11:58:10.617Z,15.20
2018-09-01T12:00:40.758Z,13.90
2018-09-01T12:03:11.248Z,13.80
2018-09-01T12:05:41.632Z,13.67
2018-09-01T12:08:12.492Z,14.20
2018-09-01T12:10:42.537Z,13.67
2018-09-01T12:13:14.521Z,13.40
2018-09-01T12:15:46.191Z,14.60
2018-09-01T12:18:15.916Z,13.57
2018-09-01T12:20:47.112Z,12.97
2018-09-01T12:23:17.091Z,14.00
2018-09-01T12:25:48.075Z,13.80
2018-09-01T12:28:18.105Z,13.73
2018-09-01T12:30:48.979Z,13.97
2018-09-01T12:33:20.876Z,14.00
2018-09-01T12:35:52.803Z,14.37
2018-09-01T12:38:22.610Z,15.27
2018-09-01T12:40:54.385Z,13.97
2018-09-01T12:43:24.139Z,14.27
2018-09-01T12:45:56.686Z,14.63
2018-09-01T12:48:26.615Z,14.50
2018-09-01T12:50:56.574Z,14.57
2018-09-01T12:53:26.683Z,14.13
2018-09-01T12:55:57.128Z,14.17
2018-09-01T12:58:27.365Z,14.03
2018-09-01T13:00:57.157Z,13.40
2018-09-01T13:03:30.112Z,14.00
2018-09-01T13:06:00.566Z,14.40
2018-09-01T13:08:31.188Z,13.50
2018-09-01T13:11:01.576Z,14.00
2018-09-01T13:13:34.104Z,13.30
2018-09-01T13:16:06.657Z,14.17
2018-09-01T13:18:38.346Z,12.90
2018-09-01T13:21:11.463Z,13.40
2018-09-01T13:23:42.826Z,13.90
2018-09-01T13:26:14.363Z,13.50
2018-09-01T13:28:44.509Z,12.93
2018-09-01T13:31:15.456Z,13.97
2018-09-01T13:33:47.198Z,13.90
2018-09-01T13:36:17.153Z,14.60
2018-09-01T13:38:47.741Z,14.00
2018-09-01T13:41:17.701Z,14.33
2018-09-01T13:43:48.232Z,12.30
2018-09-01T13:46:19.044Z,13.23
2018-09-01T13:48:49.166Z,14.90
2018-09-01T13:51:19.593Z,14.30
2018-09-01T13:53:50.304Z,13.10
2018-09-01T13:56:21.115Z,13.03
2018-09-01T13:58:51.540Z,13.20
2018-09-01T14:01:22.843Z,13.87
2018-09-01T14:03:53.146Z,13.80
2018-09-01T14:06:23.895Z,13.10
2018-09-01T14:08:54.624Z,13.87
2018-09-01T14:11:25.353Z,13.00
2018-09-01T14:13:55.589Z,13.47
2018-09-01T14:16:26.736Z,13.43
2018-09-01T14:18:56.872Z,14.47
2018-09-01T14:21:28.999Z,13.27
2018-09-01T14:23:59.354Z,12.43
2018-09-01T14:26:30.641Z,12.80
2018-09-01T14:29:01.848Z,13.47
2018-09-01T14:31:32.101Z,13.00
2018-09-01T14:34:03.652Z,12.23
2018-09-01T14:36:34.205Z,13.60
2018-09-01T14:39:04.572Z,13.03
2018-09-01T14:41:34.475Z,12.43
2018-09-01T14:44:04.664Z,13.40
2018-09-01T14:46:35.056Z,12.73
2018-09-01T14:49:05.524Z,12.40
2018-09-01T14:51:36.114Z,13.63
2018-09-01T14:54:07.781Z,13.00
2018-09-01T14:56:38.710Z,14.00
2018-09-01T14:59:10.302Z,14.63
2018-09-01T15:01:40.351Z,14.43
2018-09-01T15:04:10.460Z,13.60
2018-09-01T15:06:45.535Z,14.23
2018-09-01T15:09:23.908Z,14.97
2018-09-01T15:11:53.667Z,13.77
2018-09-01T15:14:23.813Z,13.10
2018-09-01T15:16:55.988Z,14.00
2018-09-01T15:19:46.461Z,14.80
2018-09-01T15:22:17.366Z,15.03
2018-09-01T15:24:47.332Z,15.23
2018-09-01T15:27:17.096Z,15.00
2018-09-01T15:29:47.682Z,14.77
2018-09-01T15:32:17.496Z,18.00
2018-09-01T15:34:47.248Z,16.43
2018-09-01T15:37:18.515Z,17.10
2018-09-01T15:39:48.297Z,16.07
2018-09-01T15:42:18.012Z,16.30
2018-09-01T15:44:48.067Z,15.23
2018-09-01T15:47:18.031Z,17.20
2018-09-01T15:49:48.617Z,17.80
2018-09-01T15:52:18.787Z,16.67
2018-09-01T15:54:48.534Z,16.83
2018-09-01T15:57:18.344Z,16.80
2018-09-01T15:59:48.054Z,15.97
2018-09-01T16:02:19.199Z,16.60
2018-09-01T16:04:48.957Z,16.23
2018-09-01T16:07:18.775Z,16.37
2018-09-01T16:09:49.635Z,17.20
2018-09-01T16:12:20.639Z,16.90
2018-09-01T16:14:50.393Z,18.70
2018-09-01T16:17:20.347Z,16.90
2018-09-01T16:19:50.131Z,18.03
2018-09-01T16:22:20.046Z,17.90
2018-09-01T16:24:49.876Z,16.00
2018-09-01T16:27:19.568Z,18.60
2018-09-01T16:29:49.302Z,19.23
2018-09-01T16:32:19.158Z,17.73
2018-09-01T16:34:48.989Z,17.27
2018-09-01T16:37:18.777Z,19.30
2018-09-01T16:39:48.569Z,18.43
2018-09-01T16:42:18.348Z,18.70
2018-09-01T16:44:48.133Z,16.40
2018-09-01T16:47:17.829Z,19.10
2018-09-01T16:49:47.702Z,17.73
2018-09-01T16:52:17.638Z,18.33
2018-09-01T16:54:47.736Z,18.90
2018-09-01T16:57:17.647Z,18.87
2018-09-01T16:59:47.399Z,18.10
2018-09-01T17:02:17.812Z,19.30
2018-09-01T17:04:47.626Z,17.73
2018-09-01T17:07:20.722Z,17.40
2018-09-01T17:09:50.706Z,18.17
2018-09-01T17:12:20.765Z,18.23
2018-09-01T17:14:52.232Z,17.23
2018-09-01T17:17:22.515Z,17.77
2018-09-01T17:19:52.238Z,16.00
2018-09-01T17:22:21.994Z,17.47
2018-09-01T17:24:51.793Z,16.63
2018-09-01T17:27:21.527Z,17.10
2018-09-01T17:29:51.360Z,16.50
2018-09-01T17:32:21.125Z,15.70
2018-09-01T17:34:51.365Z,15.73
2018-09-01T17:37:21.890Z,17.50
2018-09-01T17:39:51.661Z,18.73
2018-09-01T17:42:21.533Z,17.40
2018-09-01T17:44:51.397Z,17.30
2018-09-01T17:47:21.204Z,17.43
2018-09-01T17:49:51.006Z,17.87
2018-09-01T17:52:23.915Z,18.80
2018-09-01T17:54:54.832Z,18.50
2018-09-01T17:57:24.923Z,17.97
2018-09-01T17:59:55.730Z,18.77
2018-09-01T18:02:26.636Z,17.93
2018-09-01T18:04:56.448Z,18.00
2018-09-01T18:07:26.190Z,18.50
2018-09-01T18:10:01.292Z,19.60
2018-09-01T18:12:31.105Z,17.60
2018-09-01T18:15:00.915Z,16.80
2018-09-01T18:17:30.764Z,18.20
2018-09-01T18:20:00.600Z,18.30
2018-09-01T18:22:30.489Z,19.00
2018-09-01T18:25:01.432Z,19.30
2018-09-01T18:27:31.933Z,19.73
2018-09-01T18:30:02.179Z,17.30
2018-09-01T18:32:32.624Z,16.07
2018-09-01T18:35:04.142Z,17.03
2018-09-01T18:37:34.722Z,15.30
2018-09-01T18:40:05.299Z,14.27
2018-09-01T18:42:36.126Z,13.47
2018-09-01T18:45:07.415Z,15.83
2018-09-01T18:47:38.867Z,14.33
2018-09-01T18:50:15.542Z,12.37
2018-09-01T18:52:46.693Z,12.90
2018-09-01T18:55:17.105Z,12.83
2018-09-01T18:57:47.616Z,13.60
2018-09-01T19:00:17.598Z,11.37
2018-09-01T19:02:48.124Z,11.10
2018-09-01T19:05:19.631Z,11.80
2018-09-01T19:07:51.432Z,11.13
2018-09-01T19:10:21.808Z,11.83
2018-09-01T19:12:56.734Z,12.53
2018-09-01T19:15:27.076Z,11.40
2018-09-01T19:17:58.549Z,11.33
2018-09-01T19:20:30.495Z,10.30
2018-09-01T19:23:00.501Z,10.10
2018-09-01T19:26:01.043Z,10.70
2018-09-01T19:31:22.929Z,11.27
2018-09-01T19:33:53.120Z,11.23
2018-09-01T19:36:23.321Z,11.37
2018-09-01T19:38:53.678Z,11.80
2018-09-01T19:41:25.176Z,10.57
2018-09-01T19:43:55.295Z,12.40
2018-09-01T19:46:25.684Z,12.73
2018-09-01T19:48:57.310Z,12.93
2018-09-01T19:51:28.530Z,11.90
2018-09-01T19:53:58.302Z,10.90
2018-09-01T19:56:28.782Z,10.43
2018-09-01T19:58:58.638Z,11.30
2018-09-01T20:01:28.420Z,11.53
2018-09-01T20:03:58.920Z,10.90
2018-09-01T20:06:29.852Z,11.80
2018-09-01T20:08:59.630Z,11.30
2018-09-01T20:11:29.904Z,11.43
2018-09-01T20:14:00.059Z,11.67
2018-09-01T20:16:30.482Z,12.07
2018-09-01T20:19:00.562Z,12.50
2018-09-01T20:21:30.950Z,11.77
2018-09-01T20:24:01.715Z,11.17
2018-09-01T20:26:32.657Z,11.63
2018-09-01T20:29:02.478Z,10.70
2018-09-01T20:31:33.135Z,12.03
2018-09-01T20:34:03.951Z,10.90
2018-09-01T20:36:34.274Z,10.63
2018-09-01T20:39:04.582Z,10.33
2018-09-01T20:41:35.882Z,10.70
2018-09-01T20:44:06.207Z,10.30
2018-09-01T20:46:37.748Z,10.57
2018-09-01T20:49:08.848Z,10.13
2018-09-01T20:51:38.987Z,10.20
2018-09-01T20:54:09.499Z,10.07
2018-09-01T20:56:41.869Z,9.73
2018-09-01T20:59:11.971Z,10.10
2018-09-01T21:01:42.435Z,11.47
2018-09-01T21:04:12.458Z,10.43
2018-09-01T21:06:42.351Z,9.70
2018-09-01T21:09:12.145Z,9.77
2018-09-01T21:11:45.115Z,10.53
2018-09-01T21:14:15.130Z,10.40
2018-09-01T21:16:45.081Z,9.57
2018-09-01T21:19:14.842Z,10.60
2018-09-01T21:21:44.606Z,10.13
2018-09-01T21:24:14.343Z,11.03
2018-09-01T21:26:44.476Z,10.70
2018-09-01T21:29:14.149Z,10.40
2018-09-01T21:31:45.044Z,9.50
2018-09-01T21:34:14.970Z,10.13
2018-09-01T21:36:44.813Z,9.70
2018-09-01T21:39:14.603Z,10.03
2018-09-01T21:41:44.388Z,10.00
2018-09-01T21:44:14.152Z,9.60
2018-09-01T21:46:45.432Z,9.60
2018-09-01T21:49:15.258Z,9.37
2018-09-01T21:51:46.796Z,9.00
2018-09-01T21:54:17.149Z,9.50
2018-09-01T21:56:46.914Z,8.30
2018-09-01T21:59:17.337Z,9.80
2018-09-01T22:01:52.070Z,9.93
2018-09-01T22:04:22.833Z,9.83
2018-09-01T22:06:52.717Z,9.70
2018-09-01T22:09:22.567Z,9.60
2018-09-01T22:11:52.380Z,9.50
2018-09-01T22:14:22.099Z,10.13
2018-09-01T22:16:51.828Z,9.93
2018-09-01T22:19:21.606Z,9.33
2018-09-01T22:21:51.412Z,9.47
2018-09-01T22:24:21.141Z,9.90
2018-09-01T22:26:50.961Z,9.77
2018-09-01T22:29:20.791Z,9.70
2018-09-01T22:31:50.599Z,10.60
2018-09-01T22:34:20.331Z,9.83
2018-09-01T22:36:50.096Z,10.00
2018-09-01T22:39:19.814Z,9.60
2018-09-01T22:41:49.681Z,9.43
2018-09-01T22:44:19.459Z,9.83
2018-09-01T22:46:49.523Z,10.07
2018-09-01T22:49:19.261Z,9.87
2018-09-01T22:51:50.101Z,9.77
2018-09-01T22:54:19.904Z,9.40
2018-09-01T22:56:49.773Z,8.60
2018-09-01T22:59:19.601Z,10.17
2018-09-01T23:01:49.500Z,8.73
2018-09-01T23:04:19.280Z,8.93
2018-09-01T23:06:49.159Z,9.23
2018-09-01T23:09:18.845Z,9.43
2018-09-01T23:11:49.044Z,9.20
2018-09-01T23:14:18.979Z,9.30
2018-09-01T23:16:48.952Z,9.97
2018-09-01T23:19:19.222Z,8.73
2018-09-01T23:21:49.618Z,9.20
2018-09-01T23:24:19.540Z,9.03
2018-09-01T23:26:49.358Z,9.33
2018-09-01T23:29:19.201Z,8.93
2018-09-01T23:31:48.972Z,8.93
2018-09-01T23:34:19.043Z,8.80
2018-09-01T23:36:48.747Z,8.90
2018-09-01T23:39:18.547Z,9.63
2018-09-01T23:41:48.285Z,8.83
2018-09-01T23:44:18.030Z,9.40
2018-09-01T23:46:47.776Z,9.57
2018-09-01T23:49:17.513Z,12.13
2018-09-01T23:51:47.232Z,9.73
2018-09-01T23:54:16.981Z,9.40
2018-09-01T23:56:46.655Z,9.80
2018-09-01T23:59:16.361Z,10.13
